Time;durP1;ratioP1;P1;durP2;ratioP2;P2;SDS_P1;SDS_P2;PMS_P1;PMS_P2;Temp;Humidity;BMP_temperature;BMP_pressure;BME280_temperature;BME280_humidity;BME280_pressure;Samples;Min_cycle;Max_cycle;Signal;HPM_P1;HPM_P2
2020/12/29 00:00:55;;;;;;;5.90;5.30;;;;;;;3.90;83.26;97019.34;5079332;28;21019;-79
2020/12/29 00:03:20;;;;;;;5.53;5.13;;;;;;;3.91;82.96;97021.88;5081450;28;20219;-81
2020/12/29 00:05:47;;;;;;;5.43;5.03;;;;;;;3.91;82.78;97016.72;5080157;28;20217;-82
2020/12/29 00:08:14;;;;;;;6.50;5.90;;;;;;;3.96;82.75;97025.09;5084723;28;20205;-80
2020/12/29 00:10:41;;;;;;;5.70;5.30;;;;;;;3.86;83.28;97034.13;5086199;28;20486;-80
2020/12/29 00:13:07;;;;;;;6.00;5.50;;;;;;;3.86;82.95;97023.81;5080718;28;20212;-80
2020/12/29 00:15:33;;;;;;;5.70;5.30;;;;;;;3.88;83.10;97024.59;5078433;28;20225;-80
2020/12/29 00:18:00;;;;;;;6.37;5.87;;;;;;;3.93;82.95;97021.81;5082776;28;20197;-80
2020/12/29 00:20:26;;;;;;;6.33;5.83;;;;;;;3.86;82.83;97028.16;5079666;28;20212;-80
2020/12/29 00:22:51;;;;;;;6.57;5.97;;;;;;;3.83;83.09;97018.00;5081289;28;20674;-80
2020/12/29 00:25:18;;;;;;;7.03;6.53;;;;;;;3.80;83.15;97011.22;5080187;28;20287;-81
2020/12/29 00:27:44;;;;;;;6.50;6.00;;;;;;;3.78;82.42;97021.59;5080295;28;20204;-80
2020/12/29 00:30:10;;;;;;;7.03;6.53;;;;;;;3.78;82.29;97019.03;5078189;28;20209;-80
2020/12/29 00:32:36;;;;;;;6.57;6.07;;;;;;;3.86;82.02;97004.94;5081274;28;20590;-79
2020/12/29 00:35:03;;;;;;;7.03;6.53;;;;;;;3.90;81.62;97004.72;5080731;28;20227;-81
2020/12/29 00:37:29;;;;;;;7.07;6.47;;;;;;;3.94;81.59;97007.97;5082816;28;20621;-80
2020/12/29 00:39:55;;;;;;;6.67;6.20;;;;;;;3.89;81.69;97008.22;5085534;28;20208;-79
2020/12/29 00:42:21;;;;;;;6.17;5.63;;;;;;;3.73;81.28;97013.25;5082238;28;20204;-81
2020/12/29 00:44:47;;;;;;;6.77;5.57;;;;;;;3.65;81.63;97011.91;5081547;28;20216;-80
2020/12/29 00:47:12;;;;;;;6.23;5.73;;;;;;;3.60;81.60;97012.16;5081891;28;20216;-81
2020/12/29 00:49:39;;;;;;;6.40;5.97;;;;;;;3.53;81.73;97013.34;5080279;28;20674;-80
2020/12/29 00:52:06;;;;;;;6.10;5.67;;;;;;;3.57;81.58;97005.41;5081738;28;20201;-80
2020/12/29 00:54:32;;;;;;;7.30;6.77;;;;;;;3.55;81.46;96999.47;5080574;28;20225;-81
2020/12/29 00:56:58;;;;;;;6.23;5.83;;;;;;;3.53;80.98;97003.88;5080873;28;20239;-81
2020/12/29 00:59:24;;;;;;;5.80;5.40;;;;;;;3.42;81.38;97006.09;5081169;28;20219;-79
2020/12/29 01:01:53;;;;;;;6.17;5.70;;;;;;;3.37;81.66;97006.31;5080881;28;20193;-79
2020/12/29 01:04:19;;;;;;;5.70;5.30;;;;;;;3.36;81.19;97014.94;5074457;28;20266;-80
2020/12/29 01:06:45;;;;;;;5.57;5.17;;;;;;;3.21;80.57;97018.22;5080718;28;20651;-81
2020/12/29 01:09:12;;;;;;;6.63;5.90;;;;;;;3.24;80.96;97015.50;5089642;28;20223;-80
2020/12/29 01:11:38;;;;;;;5.80;5.40;;;;;;;3.20;81.61;97006.22;5080522;28;20193;-80
2020/12/29 01:14:03;;;;;;;5.83;5.37;;;;;;;3.15;81.41;97010.75;5081138;28;20226;-80
2020/12/29 01:16:29;;;;;;;6.40;5.90;;;;;;;3.10;81.02;97008.38;5079256;28;20227;-80
2020/12/29 01:18:57;;;;;;;5.70;5.30;;;;;;;3.10;81.16;97010.13;5081396;28;20732;-80
2020/12/29 01:21:23;;;;;;;6.13;5.73;;;;;;;3.01;80.48;97013.09;5074538;28;20231;-81
2020/12/29 01:23:49;;;;;;;5.80;5.40;;;;;;;2.93;80.62;97014.28;5080566;28;20204;-79
2020/12/29 01:26:22;;;;;;;6.63;6.13;;;;;;;2.87;81.03;97005.97;5079818;28;20319;-79
2020/12/29 01:28:48;;;;;;;6.37;5.97;;;;;;;2.85;81.60;97011.19;5080356;28;20201;-81
2020/12/29 01:31:13;;;;;;;5.73;5.23;;;;;;;2.79;81.09;96996.00;5080012;28;20197;-79
2020/12/29 01:33:39;;;;;;;6.63;6.10;;;;;;;2.70;81.21;96997.25;5080627;28;20260;-81
2020/12/29 01:36:09;;;;;;;6.40;5.90;;;;;;;2.64;81.98;97005.22;5079543;28;20259;-80
2020/12/29 01:38:34;;;;;;;6.73;6.23;;;;;;;2.59;82.18;97009.72;5081875;28;20205;-80
2020/12/29 01:41:00;;;;;;;6.77;6.30;;;;;;;2.61;81.55;97015.66;5081741;28;20208;-80
2020/12/29 01:43:30;;;;;;;7.03;6.33;;;;;;;2.58;81.51;97010.66;5080877;28;20209;-81
2020/12/29 01:45:56;;;;;;;6.90;6.40;;;;;;;2.53;82.24;97008.25;5078297;28;20225;-79
2020/12/29 01:48:22;;;;;;;8.13;7.33;;;;;;;2.55;81.84;97018.47;5079639;28;20200;-80
2020/12/29 01:50:48;;;;;;;7.23;6.73;;;;;;;2.52;81.66;97027.19;5079126;28;20214;-79
2020/12/29 01:53:14;;;;;;;6.80;6.30;;;;;;;2.47;81.62;97023.94;5079140;28;20737;-82
2020/12/29 01:55:40;;;;;;;6.60;6.10;;;;;;;2.46;81.14;97034.31;5082084;28;20714;-81
2020/12/29 01:58:06;;;;;;;7.37;6.77;;;;;;;2.45;81.66;97030.06;5083423;28;20220;-80
2020/12/29 02:00:33;;;;;;;6.70;6.20;;;;;;;2.32;80.72;97035.72;5082982;28;20729;-79
2020/12/29 02:02:59;;;;;;;6.47;5.97;;;;;;;2.24;81.19;97027.47;5084250;28;20200;-80
2020/12/29 02:05:26;;;;;;;6.67;6.17;;;;;;;2.23;81.31;97036.09;5081738;28;20311;-81
2020/12/29 02:07:52;;;;;;;6.53;5.93;;;;;;;2.20;81.02;97038.81;5081798;28;20338;-80
2020/12/29 02:10:18;;;;;;;6.57;6.07;;;;;;;2.22;80.41;97043.84;5086393;28;20201;-79
2020/12/29 02:12:44;;;;;;;6.70;6.20;;;;;;;2.15;81.80;97044.09;5082043;28;20204;-80
2020/12/29 02:15:10;;;;;;;6.97;6.37;;;;;;;2.16;81.07;97042.38;5082481;28;20256;-78
2020/12/29 02:17:37;;;;;;;7.20;6.50;;;;;;;2.12;81.20;97049.41;5082856;28;20216;-80
2020/12/29 02:20:05;;;;;;;7.03;6.53;;;;;;;2.17;81.24;97052.59;5081472;28;20678;-81
2020/12/29 02:22:32;;;;;;;6.60;6.00;;;;;;;2.13;82.18;97058.78;5082584;28;20193;-80
2020/12/29 02:24:59;;;;;;;6.30;5.90;;;;;;;2.15;81.55;97061.28;5081577;28;20237;-80
2020/12/29 02:27:26;;;;;;;7.20;6.70;;;;;;;2.16;81.81;97063.81;5082815;28;20201;-79
2020/12/29 02:29:53;;;;;;;7.60;7.00;;;;;;;2.09;81.84;97062.38;5084291;28;20201;-80
2020/12/29 02:32:20;;;;;;;6.80;6.30;;;;;;;2.10;81.68;97074.34;5084028;28;20201;-79
2020/12/29 02:34:46;;;;;;;6.63;6.13;;;;;;;2.12;82.43;97069.97;5083135;28;20228;-79
2020/12/29 02:37:12;;;;;;;6.53;6.03;;;;;;;2.06;81.86;97070.22;5083392;28;20579;-81
2020/12/29 02:39:41;;;;;;;6.97;6.37;;;;;;;2.03;81.80;97075.47;5083265;28;20201;-79
2020/12/29 02:42:08;;;;;;;7.13;6.50;;;;;;;1.98;81.76;97075.66;5083977;28;20566;-81
2020/12/29 02:44:34;;;;;;;6.70;6.20;;;;;;;1.91;81.44;97081.94;5083934;28;20220;-80
2020/12/29 02:47:00;;;;;;;7.00;6.47;;;;;;;2.04;81.51;97089.16;5086026;28;20200;-80
2020/12/29 02:49:26;;;;;;;7.30;6.80;;;;;;;2.02;81.72;97084.06;5083120;28;20287;-79
2020/12/29 02:51:56;;;;;;;7.00;6.50;;;;;;;2.00;81.65;97093.59;5082739;28;20201;-81
2020/12/29 02:54:22;;;;;;;6.77;6.27;;;;;;;1.97;81.63;97096.28;5076263;28;20211;-80
2020/12/29 02:56:48;;;;;;;7.37;6.87;;;;;;;1.91;82.14;97094.78;5081728;28;20216;-81
2020/12/29 02:59:14;;;;;;;6.60;6.20;;;;;;;1.89;82.16;97101.72;5085299;28;20258;-80
2020/12/29 03:01:40;;;;;;;6.70;6.20;;;;;;;1.87;81.38;97103.50;5086698;28;20193;-79
2020/12/29 03:04:06;;;;;;;7.70;7.10;;;;;;;1.89;82.23;97104.28;5085753;28;20254;-82
2020/12/29 03:06:32;;;;;;;6.83;6.33;;;;;;;1.91;81.64;97109.38;5086029;28;20235;-80
2020/12/29 03:08:57;;;;;;;7.07;6.57;;;;;;;1.86;81.36;97112.13;5088443;28;20231;-81
2020/12/29 03:11:28;;;;;;;7.67;7.07;;;;;;;1.89;82.40;97109.44;5084339;28;20275;-81
2020/12/29 03:13:56;;;;;;;8.87;8.20;;;;;;;1.99;82.97;97109.94;5087277;28;20228;-81
2020/12/29 03:16:22;;;;;;;7.50;7.00;;;;;;;2.03;82.94;97115.78;5079560;28;20224;-82
2020/12/29 03:18:47;;;;;;;8.93;8.23;;;;;;;2.08;83.39;97117.31;5084686;28;20203;-81
2020/12/29 03:21:13;;;;;;;8.23;7.63;;;;;;;2.11;83.54;97122.31;5083980;28;20715;-81
2020/12/29 03:23:39;;;;;;;7.90;7.30;;;;;;;2.23;82.98;97120.16;5085083;28;20197;-80
2020/12/29 03:26:05;;;;;;;8.57;7.97;;;;;;;2.29;82.58;97122.50;5083505;28;20237;-81
2020/12/29 03:28:31;;;;;;;8.73;8.10;;;;;;;2.31;82.95;97123.28;5087294;28;20195;-80
2020/12/29 03:30:58;;;;;;;7.93;7.33;;;;;;;2.34;83.14;97134.28;5075608;28;20209;-80
2020/12/29 03:33:24;;;;;;;7.33;6.73;;;;;;;2.42;81.95;97133.13;5077729;28;20205;-80
2020/12/29 03:35:50;;;;;;;7.37;6.87;;;;;;;2.41;81.96;97134.06;5082070;28;20603;-81
2020/12/29 03:38:16;;;;;;;8.33;7.67;;;;;;;2.47;81.95;97138.94;5084761;28;20208;-80
2020/12/29 03:40:42;;;;;;;7.83;7.23;;;;;;;2.43;81.85;97143.38;5083096;28;20197;-82
2020/12/29 03:43:12;;;;;;;7.57;6.97;;;;;;;2.49;81.91;97137.97;5082900;28;20740;-80
2020/12/29 03:45:38;;;;;;;7.47;6.87;;;;;;;2.55;81.25;97140.31;5083223;28;20232;-81
2020/12/29 03:48:05;;;;;;;7.00;6.40;;;;;;;2.45;80.71;97146.72;5083632;28;20242;-80
2020/12/29 03:50:32;;;;;;;7.13;6.63;;;;;;;2.54;81.61;97133.50;5084918;28;20215;-81
2020/12/29 03:52:58;;;;;;;6.90;6.40;;;;;;;2.66;81.12;97139.06;5084274;28;20895;-81
2020/12/29 03:55:24;;;;;;;6.90;6.40;;;;;;;2.70;80.61;97138.03;5083657;28;20304;-81
2020/12/29 03:57:49;;;;;;;7.00;6.50;;;;;;;2.51;79.99;97141.34;5084188;28;20236;-81
2020/12/29 04:00:15;;;;;;;6.90;6.40;;;;;;;2.52;80.81;97134.47;5084266;28;20670;-81
2020/12/29 04:02:41;;;;;;;6.80;6.23;;;;;;;2.57;81.54;97132.53;5085472;28;20575;-80
2020/12/29 04:05:09;;;;;;;6.57;6.07;;;;;;;2.65;80.69;97139.94;5083876;28;20772;-82
2020/12/29 04:07:35;;;;;;;6.80;6.30;;;;;;;2.65;80.69;97138.22;5084281;28;20212;-80
2020/12/29 04:10:00;;;;;;;7.07;6.57;;;;;;;2.66;80.39;97139.06;5084205;28;20205;-83
2020/12/29 04:12:26;;;;;;;7.37;6.67;;;;;;;2.59;80.23;97151.31;5084111;28;20627;-82
2020/12/29 04:14:52;;;;;;;7.10;6.60;;;;;;;2.59;81.02;97159.06;5085341;28;20232;-82
2020/12/29 04:17:18;;;;;;;6.37;5.97;;;;;;;2.59;81.19;97154.72;5085693;28;20251;-81
2020/12/29 04:19:44;;;;;;;6.33;5.73;;;;;;;2.56;80.44;97154.03;5087012;28;20208;-80
2020/12/29 04:22:10;;;;;;;6.00;5.60;;;;;;;2.56;80.98;97154.88;5085964;28;20201;-80
2020/12/29 04:24:36;;;;;;;5.50;5.10;;;;;;;2.55;80.63;97149.78;5085024;28;20259;-83
2020/12/29 04:27:02;;;;;;;5.97;5.57;;;;;;;2.58;81.43;97152.25;5082809;28;20205;-80
2020/12/29 04:29:28;;;;;;;4.87;4.57;;;;;;;2.56;80.36;97149.72;5081050;28;20234;-81
2020/12/29 04:31:54;;;;;;;5.53;5.13;;;;;;;2.57;80.80;97142.81;5082126;28;20208;-80
2020/12/29 04:34:20;;;;;;;5.40;4.90;;;;;;;2.63;80.88;97149.47;5080858;28;20204;-81
2020/12/29 04:36:45;;;;;;;5.20;4.90;;;;;;;2.56;79.79;97142.00;5081438;28;20252;-80
2020/12/29 04:39:12;;;;;;;4.80;4.50;;;;;;;2.50;80.14;97144.81;5080960;28;20197;-81
2020/12/29 04:41:40;;;;;;;5.33;4.93;;;;;;;2.49;80.46;97143.13;5075307;28;20731;-80
2020/12/29 04:44:06;;;;;;;4.83;4.43;;;;;;;2.45;80.18;97149.31;5081518;28;20193;-80
2020/12/29 04:46:33;;;;;;;4.83;4.37;;;;;;;2.40;79.56;97148.66;5081290;28;20286;-81
2020/12/29 04:48:59;;;;;;;5.23;4.83;;;;;;;2.36;79.94;97154.84;5081254;28;20307;-81
2020/12/29 04:51:28;;;;;;;5.20;4.80;;;;;;;2.31;79.82;97152.41;5081629;28;20204;-80
2020/12/29 04:53:57;;;;;;;4.93;4.53;;;;;;;2.33;80.14;97154.94;5080762;28;20227;-80
2020/12/29 04:56:31;;;;;;;4.83;4.43;;;;;;;2.24;79.90;97155.28;5080393;28;20228;-81
2020/12/29 04:58:59;;;;;;;5.20;4.80;;;;;;;2.26;79.50;97161.22;5080774;28;20256;-80
2020/12/29 05:01:28;;;;;;;4.57;4.17;;;;;;;2.22;79.52;97152.78;5080132;28;20264;-80
2020/12/29 05:03:54;;;;;;;4.53;4.23;;;;;;;2.20;79.43;97159.72;5080959;28;20681;-80
2020/12/29 05:06:22;;;;;;;4.33;4.03;;;;;;;2.12;79.89;97165.16;5067690;28;20247;-81
2020/12/29 05:08:49;;;;;;;4.13;3.83;;;;;;;2.04;79.71;97163.75;5082027;28;20269;-80
2020/12/29 05:11:16;;;;;;;4.20;3.90;;;;;;;1.97;79.51;97169.13;5079641;28;20607;-80
2020/12/29 05:13:43;;;;;;;5.03;4.63;;;;;;;1.93;79.91;97174.47;5080293;28;20568;-81
2020/12/29 05:16:09;;;;;;;4.57;4.23;;;;;;;1.85;79.69;97179.06;5079283;28;20710;-81
2020/12/29 05:18:36;;;;;;;4.63;4.23;;;;;;;1.81;80.19;97177.50;5079711;28;20208;-80
2020/12/29 05:21:02;;;;;;;4.90;4.50;;;;;;;1.74;81.09;97182.00;5081718;28;20579;-80
2020/12/29 05:23:28;;;;;;;5.07;4.67;;;;;;;1.77;80.79;97180.16;5080762;28;20204;-81
2020/12/29 05:25:54;;;;;;;4.80;4.50;;;;;;;1.75;81.08;97178.53;5080123;28;20239;-80
2020/12/29 05:28:20;;;;;;;4.90;4.50;;;;;;;1.79;81.37;97170.66;5080692;28;20197;-80
2020/12/29 05:30:54;;;;;;;5.17;4.77;;;;;;;1.76;80.95;97172.50;5084699;28;20201;-80
2020/12/29 05:33:20;;;;;;;10.40;9.50;;;;;;;1.77;80.83;97176.75;5082346;28;20197;-80
2020/12/29 05:35:47;;;;;;;17.60;15.40;;;;;;;1.77;81.40;97177.59;5084680;28;20590;-80
2020/12/29 05:38:13;;;;;;;6.93;6.33;;;;;;;1.70;80.90;97173.56;5083622;28;20914;-80
2020/12/29 05:40:39;;;;;;;4.30;4.00;;;;;;;1.70;81.59;97175.28;5084502;28;20287;-80
2020/12/29 05:43:05;;;;;;;7.13;6.43;;;;;;;1.73;80.70;97175.19;5084548;28;20234;-80
2020/12/29 05:45:32;;;;;;;5.17;4.67;;;;;;;1.70;81.25;97177.84;5084097;28;20224;-81
2020/12/29 05:48:00;;;;;;;5.47;3.87;;;;;;;1.71;81.01;97184.69;5085138;28;20201;-81
2020/12/29 05:50:27;;;;;;;3.63;3.33;;;;;;;1.72;81.38;97183.78;5086251;28;20197;-81
2020/12/29 05:52:55;;;;;;;4.03;3.73;;;;;;;1.72;81.19;97176.06;5083726;28;20250;-80
2020/12/29 05:55:22;;;;;;;4.73;4.40;;;;;;;1.70;81.81;97180.44;5083350;28;20225;-80
2020/12/29 05:58:00;;;;;;;3.53;3.23;;;;;;;1.74;80.66;97182.00;5082828;28;20216;-81
2020/12/29 06:00:26;;;;;;;3.60;3.30;;;;;;;1.72;81.01;97187.19;5083339;28;20221;-81
2020/12/29 06:02:54;;;;;;;3.73;3.43;;;;;;;1.72;80.79;97191.50;5083968;28;20482;-80
2020/12/29 06:05:22;;;;;;;3.30;3.00;;;;;;;1.79;81.28;97198.09;5079441;28;20227;-81
2020/12/29 06:07:52;;;;;;;3.63;3.17;;;;;;;1.86;81.27;97206.44;5083035;28;20250;-80
2020/12/29 06:10:18;;;;;;;18.33;14.07;;;;;;;1.84;81.12;97198.75;5073810;28;20197;-80
2020/12/29 06:12:51;;;;;;;18.17;13.43;;;;;;;1.84;81.31;97206.47;5082293;28;20590;-80
2020/12/29 06:15:22;;;;;;;6.47;5.37;;;;;;;1.80;81.64;97210.06;5083385;28;20672;-81
2020/12/29 06:17:54;;;;;;;4.20;3.80;;;;;;;1.82;81.24;97212.59;5083989;28;20209;-80
2020/12/29 06:20:20;;;;;;;4.97;4.57;;;;;;;1.82;80.94;97220.28;5083505;28;20254;-80
2020/12/29 06:22:50;;;;;;;3.37;3.17;;;;;;;1.88;81.40;97225.22;5083541;28;20244;-81
2020/12/29 06:25:18;;;;;;;3.13;2.93;;;;;;;1.85;81.80;97230.47;5075687;28;20229;-81
2020/12/29 06:27:50;;;;;;;3.27;3.07;;;;;;;1.87;81.84;97231.28;5081489;28;20193;-80
2020/12/29 06:30:18;;;;;;;3.73;3.20;;;;;;;1.87;80.98;97232.09;5084795;28;20196;-82
2020/12/29 06:32:47;;;;;;;3.27;3.07;;;;;;;1.84;81.52;97234.75;5084817;28;20201;-80
2020/12/29 06:35:13;;;;;;;3.50;3.20;;;;;;;1.82;81.60;97243.44;5083609;28;20223;-80
2020/12/29 06:37:44;;;;;;;3.80;3.60;;;;;;;1.83;81.03;97245.13;5084425;28;20590;-81
2020/12/29 06:40:13;;;;;;;4.00;3.60;;;;;;;1.80;81.34;97258.91;5076411;28;20197;-80
2020/12/29 06:42:40;;;;;;;4.33;4.03;;;;;;;1.83;81.76;97261.38;5084721;28;20193;-81
2020/12/29 06:45:07;;;;;;;4.17;3.77;;;;;;;1.85;81.45;97251.88;5083718;28;20221;-81
2020/12/29 06:47:37;;;;;;;3.77;3.47;;;;;;;1.85;81.57;97259.59;5084210;28;20196;-81
2020/12/29 06:50:20;;;;;;;3.90;3.60;;;;;;;1.87;81.91;97254.41;5083549;28;20571;-81
2020/12/29 06:52:53;;;;;;;4.07;3.77;;;;;;;1.91;81.84;97259.38;5083356;28;20242;-80
2020/12/29 06:55:20;;;;;;;4.50;4.10;;;;;;;1.96;81.12;97261.78;5082844;28;20225;-82
2020/12/29 06:57:47;;;;;;;4.90;4.50;;;;;;;1.93;82.01;97260.16;5083253;28;20357;-80
2020/12/29 07:00:21;;;;;;;4.27;3.97;;;;;;;1.98;81.87;97270.28;5075377;28;20208;-81
2020/12/29 07:02:49;;;;;;;5.70;5.23;;;;;;;2.06;81.98;97277.72;5082909;28;20216;-81
2020/12/29 07:05:16;;;;;;;4.87;4.47;;;;;;;2.05;81.26;97281.22;5073809;28;20227;-81
2020/12/29 07:07:47;;;;;;;9.60;6.07;;;;;;;2.05;81.84;97294.06;5082121;28;20209;-80
2020/12/29 07:10:14;;;;;;;4.50;4.20;;;;;;;2.05;81.21;97289.75;5090749;28;20722;-80
2020/12/29 07:12:43;;;;;;;4.00;3.70;;;;;;;1.97;81.49;97290.03;5083141;28;20197;-81
2020/12/29 07:15:12;;;;;;;4.47;4.03;;;;;;;1.99;82.39;97297.69;5081857;28;20229;-81
2020/12/29 07:17:38;;;;;;;4.33;3.97;;;;;;;2.04;82.30;97289.81;5082071;28;20220;-81
2020/12/29 07:20:13;;;;;;;5.40;5.00;;;;;;;2.04;82.05;97297.53;5082779;28;20576;-82
2020/12/29 07:22:39;;;;;;;4.63;4.33;;;;;;;2.05;81.30;97302.63;5083887;28;20220;-82
2020/12/29 07:25:06;;;;;;;5.13;4.83;;;;;;;2.07;81.63;97303.41;5080345;28;20231;-79
2020/12/29 07:27:32;;;;;;;5.00;4.60;;;;;;;2.08;82.00;97309.38;5079056;28;20201;-80
2020/12/29 07:29:59;;;;;;;5.23;4.73;;;;;;;2.04;82.13;97320.69;5080394;28;20211;-81
2020/12/29 07:32:26;;;;;;;4.83;4.43;;;;;;;2.11;81.71;97322.16;5079033;28;20227;-81
2020/12/29 07:34:53;;;;;;;5.07;4.67;;;;;;;2.12;81.68;97323.81;5085913;28;20229;-82
2020/12/29 07:37:20;;;;;;;5.63;5.13;;;;;;;2.05;81.75;97320.63;5085927;28;20229;-82
2020/12/29 07:39:46;;;;;;;5.13;4.73;;;;;;;2.05;81.87;97330.09;5085665;28;20204;-82
2020/12/29 07:42:13;;;;;;;5.20;4.80;;;;;;;2.05;82.55;97319.78;5085756;28;20222;-80
2020/12/29 07:44:39;;;;;;;6.33;5.83;;;;;;;2.10;81.57;97333.31;5079566;28;20284;-83
2020/12/29 07:47:06;;;;;;;6.97;5.50;;;;;;;2.08;81.83;97338.53;5087745;28;20200;-81
2020/12/29 07:49:33;;;;;;;5.63;5.13;;;;;;;2.14;81.56;97342.59;5084975;28;20212;-80
2020/12/29 07:51:59;;;;;;;5.87;5.47;;;;;;;2.22;82.22;97348.34;5085974;28;20201;-83
2020/12/29 07:54:25;;;;;;;5.67;5.23;;;;;;;2.23;81.95;97347.44;5089273;28;20231;-81
2020/12/29 07:56:50;;;;;;;5.50;5.10;;;;;;;2.25;81.45;97349.97;5094080;28;20220;-82
2020/12/29 07:59:17;;;;;;;5.83;5.33;;;;;;;2.22;81.87;97348.34;5089159;28;20215;-80
2020/12/29 08:01:50;;;;;;;5.37;4.97;;;;;;;2.16;81.40;97357.13;5089859;28;20208;-80
2020/12/29 08:04:30;;;;;;;5.33;4.93;;;;;;;2.15;82.20;97364.88;5096824;28;20238;-80
2020/12/29 08:06:57;;;;;;;6.33;5.90;;;;;;;2.15;81.66;97370.88;5095124;28;20203;-80
2020/12/29 08:09:24;;;;;;;6.30;5.77;;;;;;;2.13;81.00;97374.38;5095190;28;20196;-82
2020/12/29 08:11:50;;;;;;;5.50;4.97;;;;;;;2.07;82.12;97383.16;5096657;28;20215;-80
2020/12/29 08:14:16;;;;;;;6.13;5.63;;;;;;;2.09;82.20;97385.69;5096005;28;20197;-82
2020/12/29 08:16:42;;;;;;;5.73;5.23;;;;;;;2.05;81.66;97391.81;5095714;28;20250;-81
2020/12/29 08:19:09;;;;;;;7.13;6.40;;;;;;;2.09;82.73;97398.53;5098394;28;20185;-81
2020/12/29 08:21:37;;;;;;;6.33;5.80;;;;;;;2.12;82.71;97404.44;5095602;28;20516;-81
2020/12/29 08:24:04;;;;;;;6.10;5.60;;;;;;;2.16;81.97;97410.28;5093242;28;20188;-82
2020/12/29 08:26:30;;;;;;;6.43;5.93;;;;;;;2.17;82.31;97399.13;5091459;28;20310;-80
2020/12/29 08:28:56;;;;;;;6.53;6.00;;;;;;;2.23;81.46;97410.94;5090976;28;20225;-82
2020/12/29 08:31:22;;;;;;;6.23;5.70;;;;;;;2.27;81.75;97417.66;5088947;28;20272;-84
2020/12/29 08:33:52;;;;;;;6.47;5.87;;;;;;;2.34;81.59;97419.13;5089509;28;20201;-82
2020/12/29 08:36:23;;;;;;;6.47;5.87;;;;;;;2.41;81.23;97419.75;5084578;28;20220;-82
2020/12/29 08:39:05;;;;;;;5.70;5.30;;;;;;;2.47;81.73;97424.69;5084194;28;20291;-84
2020/12/29 08:41:37;;;;;;;6.60;6.00;;;;;;;2.53;81.17;97422.72;5084457;28;20215;-83
2020/12/29 08:44:15;;;;;;;5.77;5.37;;;;;;;2.57;81.26;97428.63;5084568;28;20193;-86
2020/12/29 08:46:41;;;;;;;6.23;5.77;;;;;;;2.58;80.82;97430.31;5087062;28;20193;-82
2020/12/29 08:49:08;;;;;;;7.45;6.95;;;;;;;2.74;80.65;97436.59;5093149;28;20433;-81
2020/12/29 08:51:39;;;;;;;7.20;6.60;;;;;;;2.77;80.50;97444.22;5083228;28;20208;-81
2020/12/29 08:54:11;;;;;;;8.10;7.47;;;;;;;2.85;80.42;97440.50;5085343;28;20223;-85
2020/12/29 08:56:37;;;;;;;6.97;6.47;;;;;;;2.95;80.34;97428.97;5081638;28;20204;-81
2020/12/29 08:59:09;;;;;;;6.63;6.13;;;;;;;2.93;80.25;97446.22;5079250;28;20437;-79
2020/12/29 09:01:36;;;;;;;10.80;7.93;;;;;;;3.09;79.59;97446.50;5075912;28;20201;-79
2020/12/29 09:04:26;;;;;;;6.33;5.83;;;;;;;3.01;79.42;97458.81;5083248;28;20197;-80
2020/12/29 09:06:58;;;;;;;6.37;5.87;;;;;;;3.09;79.85;97470.53;5089344;28;20560;-80
2020/12/29 09:09:24;;;;;;;6.47;5.90;;;;;;;3.15;80.64;97472.03;5088173;28;20189;-80
2020/12/29 09:12:07;;;;;;;6.63;5.97;;;;;;;3.23;79.42;97479.47;5088077;28;20201;-81
2020/12/29 09:14:33;;;;;;;6.70;6.13;;;;;;;3.27;79.26;97479.34;5088155;28;20267;-80
2020/12/29 09:17:00;;;;;;;7.17;6.67;;;;;;;3.32;78.84;97482.56;5084903;28;20767;-80
2020/12/29 09:19:26;;;;;;;5.73;5.23;;;;;;;3.28;77.93;97482.75;5093872;28;20213;-80
2020/12/29 09:22:07;;;;;;;5.90;5.40;;;;;;;3.19;79.25;97481.31;5091260;28;20204;-86
2020/12/29 09:24:34;;;;;;;5.37;4.97;;;;;;;3.17;79.09;97488.28;5090181;28;20227;-82
2020/12/29 09:26:59;;;;;;;4.93;4.53;;;;;;;3.28;79.57;97486.16;5083680;28;20226;-82
2020/12/29 09:29:25;;;;;;;5.60;5.20;;;;;;;3.41;78.85;97502.00;5087430;28;20361;-81
2020/12/29 09:31:52;;;;;;;6.67;6.10;;;;;;;3.54;79.04;97508.38;5091927;28;20204;-81
2020/12/29 09:34:18;;;;;;;5.60;5.20;;;;;;;3.53;78.57;97506.72;5088029;28;20283;-80
2020/12/29 09:36:44;;;;;;;5.10;4.70;;;;;;;3.58;79.23;97509.09;5084164;28;20374;-80
2020/12/29 09:39:10;;;;;;;5.27;4.77;;;;;;;3.55;78.54;97510.06;5086216;28;20292;-79
2020/12/29 09:41:37;;;;;;;5.23;4.83;;;;;;;3.57;79.04;97517.75;5082075;28;20224;-81
2020/12/29 09:44:02;;;;;;;5.30;4.90;;;;;;;3.65;79.02;97520.00;5085757;28;20327;-79
2020/12/29 09:46:34;;;;;;;4.57;4.27;;;;;;;3.49;77.76;97518.03;5079599;28;20769;-83
2020/12/29 09:49:00;;;;;;;5.27;4.87;;;;;;;3.35;78.30;97528.00;5083393;28;20228;-83
2020/12/29 09:51:25;;;;;;;5.33;4.83;;;;;;;3.47;79.28;97535.31;5079597;28;20550;-81
2020/12/29 09:53:51;;;;;;;5.37;4.97;;;;;;;3.62;78.75;97527.88;5084111;28;20204;-80
2020/12/29 09:56:19;;;;;;;5.40;5.00;;;;;;;3.56;78.20;97527.19;5087498;28;20221;-80
2020/12/29 09:58:45;;;;;;;5.40;4.90;;;;;;;3.66;79.07;97526.88;5086512;28;20717;-81
2020/12/29 10:01:11;;;;;;;5.53;5.13;;;;;;;3.66;78.83;97535.44;5077040;28;20533;-81
2020/12/29 10:03:37;;;;;;;5.40;5.00;;;;;;;3.66;78.47;97534.59;5084362;28;20193;-80
2020/12/29 10:06:03;;;;;;;5.47;5.07;;;;;;;3.66;78.96;97535.44;5080808;28;20925;-79
2020/12/29 10:08:29;;;;;;;5.10;4.70;;;;;;;3.61;77.99;97545.09;5084053;28;20239;-81
2020/12/29 10:10:55;;;;;;;5.33;4.93;;;;;;;3.78;78.54;97547.03;5076213;28;20209;-81
2020/12/29 10:13:21;;;;;;;5.10;4.70;;;;;;;3.88;78.65;97543.19;5078047;28;20224;-80
2020/12/29 10:15:47;;;;;;;5.20;4.70;;;;;;;3.96;78.06;97551.50;5076218;28;20246;-81
2020/12/29 10:18:13;;;;;;;5.03;4.63;;;;;;;4.03;76.97;97552.09;5079602;28;20216;-80
2020/12/29 10:20:39;;;;;;;5.43;5.00;;;;;;;4.04;77.92;97556.34;5080192;28;20227;-84
2020/12/29 10:23:05;;;;;;;6.80;6.23;;;;;;;4.12;77.64;97561.19;5082496;28;20201;-81
2020/12/29 10:25:32;;;;;;;17.77;15.90;;;;;;;4.16;77.13;97562.75;5075886;28;20225;-79
2020/12/29 10:27:58;;;;;;;5.17;4.77;;;;;;;4.02;77.14;97559.88;5078463;28;20580;-80
2020/12/29 10:30:24;;;;;;;5.30;4.90;;;;;;;4.09;76.92;97564.75;5080177;28;20204;-78
2020/12/29 10:32:50;;;;;;;6.10;5.60;;;;;;;4.11;76.75;97564.69;5078814;28;20246;-79
2020/12/29 10:35:16;;;;;;;5.80;5.30;;;;;;;4.09;77.49;97567.34;5079024;28;20558;-81
2020/12/29 10:37:42;;;;;;;5.30;4.90;;;;;;;3.96;76.90;97571.28;5078516;28;20221;-79
2020/12/29 10:40:08;;;;;;;6.13;5.63;;;;;;;4.01;76.79;97574.53;5079730;28;20204;-79
2020/12/29 10:42:34;;;;;;;6.03;5.53;;;;;;;4.02;76.81;97581.38;5079495;28;20260;-82
2020/12/29 10:45:00;;;;;;;5.10;4.70;;;;;;;3.91;77.02;97579.22;5081057;28;20224;-84
2020/12/29 10:47:26;;;;;;;5.60;5.20;;;;;;;4.04;77.21;97583.88;5078516;28;20200;-82
2020/12/29 10:49:53;;;;;;;6.70;6.20;;;;;;;4.10;77.56;97587.09;5087038;28;20208;-81
2020/12/29 10:52:18;;;;;;;5.90;5.50;;;;;;;4.11;77.64;97591.34;5083740;28;20742;-80
2020/12/29 10:54:45;;;;;;;6.23;5.73;;;;;;;4.13;77.30;97596.44;5080068;28;20228;-83
2020/12/29 10:57:11;;;;;;;5.47;5.00;;;;;;;4.28;77.20;97606.19;5082767;28;20227;-80
2020/12/29 10:59:36;;;;;;;10.80;9.73;;;;;;;4.21;76.26;97616.81;5080515;28;20296;-81
2020/12/29 11:02:04;;;;;;;23.73;18.97;;;;;;;4.25;76.69;97611.47;5077117;28;20228;-81
2020/12/29 11:04:29;;;;;;;12.43;11.17;;;;;;;4.21;76.04;97611.66;5075899;28;20202;-80
2020/12/29 11:06:58;;;;;;;6.40;5.90;;;;;;;4.27;76.36;97612.25;5081097;28;20205;-80
2020/12/29 11:09:24;;;;;;;6.17;5.70;;;;;;;4.34;76.63;97613.69;5078477;28;20579;-81
2020/12/29 11:11:50;;;;;;;5.80;5.40;;;;;;;4.27;76.10;97612.25;5081420;28;20203;-80
2020/12/29 11:14:16;;;;;;;6.10;5.60;;;;;;;4.31;76.61;97616.38;5081404;28;20200;-79
2020/12/29 11:16:42;;;;;;;15.50;14.37;;;;;;;4.26;76.76;97620.03;5080224;28;20219;-81
2020/12/29 11:19:08;;;;;;;6.73;6.23;;;;;;;4.22;75.81;97623.63;5082773;28;20228;-80
2020/12/29 11:21:34;;;;;;;6.10;5.50;;;;;;;4.35;76.57;97628.25;5081695;28;20200;-80
2020/12/29 11:24:00;;;;;;;6.43;5.73;;;;;;;4.44;76.51;97629.66;5080887;28;20204;-80
2020/12/29 11:26:26;;;;;;;6.37;5.87;;;;;;;4.51;75.64;97638.00;5083380;28;20236;-81
2020/12/29 11:28:52;;;;;;;6.60;6.10;;;;;;;4.57;75.90;97635.16;5083525;28;20624;-82
2020/12/29 11:31:20;;;;;;;5.80;5.40;;;;;;;4.56;75.72;97636.91;5085018;28;20238;-82
2020/12/29 11:33:47;;;;;;;6.00;5.50;;;;;;;4.60;75.11;97650.56;5081928;28;20227;-83
2020/12/29 11:36:15;;;;;;;6.83;6.17;;;;;;;4.23;76.53;97659.72;5084212;28;20224;-82
2020/12/29 11:38:42;;;;;;;6.30;5.90;;;;;;;4.35;77.14;97661.84;5085759;28;20284;-82
2020/12/29 11:41:08;;;;;;;6.50;6.00;;;;;;;4.24;76.18;97663.16;5076830;28;20201;-83